Aérodrome :
LOGIN :

S'inscrire | Disclaimer

   EN    FR    IT 

 










Légende :    VFR   VFR Marginal   IFR   IFR Intensif   IFR Très Intensif
Visi : 
Plafond : 
>= 8 km
>= 3000ft
5 à 8 km
1000 à 3000 ft
1500m à 5 km
500 à 1000 ft
800 à 1500m
200 à 500 ft
< 800m
< 200 ft
Symboles :   Orages  Brouillard  Fortes neiges  Fortes précipitations  Vent > 20 kt
SIGMETs :   Divers  Orages  Givrage  Turbulence  Onde Orograph.  Cendres Volcan.







- Altitude de l'aérodrome : 909 ft
- Code IATA : KSF


EDVK - Kassel Calden

DERNIER METAR :
  • 191820Z 26013KT 4500 RA FEW022 BKN032 OVC044 13/13 Q1019

METARs EXPIRÉS :
  • 191750Z 23005KT 9999 VCSH SCT037CB BKN051 17/11 Q1018
  • 191720Z 22007KT 9999 SCT036 17/10 Q1018
  • 191650Z 22009KT 9999 SCT044 BKN086 18/10 Q1018
  • 191620Z 20007KT 160V230 9999 SCT040 BKN076 18/11 Q1018
  • 191550Z 19009KT 9999 SCT035 BKN072 18/11 Q1018
  • 191520Z 21013KT 180V250 9999 SCT043 BKN053 18/11 Q1017

TAF TAF EDVK
Valide du 19 à 12h jusqu'au 19 à 21h UTC


191100Z 1912/1921 21011KT 9999 FEW035
TEMPO 1916/1920 SHRA BKN025CB
BECMG 1917/1920 25005KT
Pas de NOTAMs connus pour ce terrain.



MET'MAP, la Météo Aéronautique d'un coup d'oeil ! - Copyright ORBIFLY Décembre 2007 - Disclaimer

ORBIFLY MET'MAP TEAM :

Programmation & Développement : Alexandra Zaïnal
Conception & Développement : Baudouin d'Aumeries
Co-Programmation & Développement : Marc-Olivier Méhu
Soutien technique & logistique : Manuel Goepfert

Contact : metmap@orbifly.com




SOURCES & CREDITS :

   NOAA